createdAt,value
2019-03-23T00:02:50.054Z,54.93
2019-03-23T00:07:54.254Z,49.70
2019-03-23T00:12:58.732Z,46.07
2019-03-23T00:18:03.051Z,65.27
2019-03-23T00:23:07.304Z,110.83
2019-03-23T00:28:11.916Z,83.80
2019-03-23T00:33:16.143Z,43.50
2019-03-23T00:38:20.695Z,48.63
2019-03-23T00:43:24.930Z,101.33
2019-03-23T00:48:29.198Z,71.73
2019-03-23T00:53:33.483Z,59.73
2019-03-23T00:58:37.793Z,73.17
2019-03-23T01:03:42.052Z,56.07
2019-03-23T01:08:46.545Z,86.53
2019-03-23T01:13:50.796Z,109.67
2019-03-23T01:18:55.296Z,83.50
2019-03-23T01:23:59.726Z,137.47
2019-03-23T01:29:03.964Z,279.63
2019-03-23T01:34:08.221Z,279.30
2019-03-23T01:39:12.466Z,246.90
2019-03-23T01:44:16.716Z,316.93
2019-03-23T01:49:21.069Z,172.37
2019-03-23T01:54:25.327Z,161.97
2019-03-23T01:59:29.585Z,108.37
2019-03-23T02:04:33.838Z,113.23
2019-03-23T02:09:38.049Z,106.60
2019-03-23T02:14:42.337Z,153.80
2019-03-23T02:19:46.664Z,241.60
2019-03-23T02:24:50.932Z,181.20
2019-03-23T02:29:55.204Z,287.60
2019-03-23T02:34:59.667Z,179.80
2019-03-23T02:40:04.136Z,260.33
2019-03-23T02:45:08.746Z,296.70
2019-03-23T02:50:13.042Z,196.67
2019-03-23T02:55:17.251Z,225.40
2019-03-23T03:00:23.323Z,113.00
2019-03-23T03:05:27.537Z,161.70
2019-03-23T03:10:40.218Z,253.77
2019-03-23T03:15:44.434Z,169.30
2019-03-23T03:20:48.649Z,219.17
2019-03-23T03:25:52.868Z,181.93
2019-03-23T03:30:57.097Z,115.33
2019-03-23T03:36:01.321Z,144.83
2019-03-23T03:41:05.646Z,211.90
2019-03-23T03:46:10.222Z,124.90
2019-03-23T03:51:14.695Z,189.20
2019-03-23T03:56:18.982Z,155.80
2019-03-23T04:01:23.192Z,59.47
2019-03-23T04:06:27.673Z,134.50
2019-03-23T04:11:31.870Z,78.70
2019-03-23T04:16:36.072Z,145.67
2019-03-23T04:21:40.280Z,111.27
2019-03-23T04:26:44.489Z,118.93
2019-03-23T04:31:48.758Z,231.50
2019-03-23T04:36:53.044Z,93.80
2019-03-23T04:41:57.279Z,133.03
2019-03-23T04:47:01.490Z,193.13
2019-03-23T04:52:05.766Z,151.97
2019-03-23T04:57:09.989Z,117.60
2019-03-23T05:02:14.197Z,119.93
2019-03-23T05:07:18.499Z,104.67
2019-03-23T05:12:22.708Z,170.57
2019-03-23T05:17:26.927Z,173.17
2019-03-23T05:22:31.135Z,159.97
2019-03-23T05:27:35.358Z,123.57
2019-03-23T05:32:39.564Z,230.87
2019-03-23T05:37:43.782Z,119.17
2019-03-23T05:42:48.135Z,123.00
2019-03-23T05:47:53.190Z,113.90
2019-03-23T05:52:57.665Z,133.90
2019-03-23T05:58:02.141Z,93.70
2019-03-23T06:03:06.822Z,130.60
2019-03-23T06:08:11.284Z,110.03
2019-03-23T06:13:15.753Z,89.13
2019-03-23T06:18:19.999Z,95.03
2019-03-23T06:23:24.460Z,100.33
2019-03-23T06:28:28.670Z,77.73
2019-03-23T06:33:33.913Z,82.83
2019-03-23T06:38:38.127Z,76.60
2019-03-23T06:43:42.673Z,78.10
2019-03-23T06:48:47.321Z,69.37
2019-03-23T06:53:51.531Z,74.97
2019-03-23T06:58:55.762Z,72.07
2019-03-23T07:04:00.745Z,81.57
2019-03-23T07:09:15.718Z,80.90
2019-03-23T07:14:12.240Z,77.37
2019-03-23T07:19:16.451Z,69.23
2019-03-23T07:24:20.952Z,68.37
2019-03-23T07:29:25.176Z,85.13
2019-03-23T07:34:29.412Z,68.83
2019-03-23T07:39:33.628Z,82.30
2019-03-23T07:44:37.884Z,77.33
2019-03-23T07:49:42.193Z,71.63
2019-03-23T07:54:46.672Z,71.40
2019-03-23T07:59:51.164Z,71.13
2019-03-23T08:04:56.763Z,79.77
2019-03-23T08:10:01.004Z,75.07
2019-03-23T08:15:07.329Z,75.40
2019-03-23T08:20:11.730Z,77.20
2019-03-23T08:25:15.935Z,78.27
2019-03-23T08:30:20.226Z,76.80
2019-03-23T08:35:24.444Z,79.90
2019-03-23T08:40:29.012Z,75.20
2019-03-23T08:45:33.231Z,74.90
2019-03-23T08:50:37.684Z,76.57
2019-03-23T08:55:41.989Z,79.50
2019-03-23T09:00:47.065Z,72.23
2019-03-23T09:05:51.254Z,74.27
2019-03-23T09:10:55.493Z,74.83
2019-03-23T09:16:00.034Z,69.03
2019-03-23T09:21:04.622Z,66.47
2019-03-23T09:26:09.136Z,66.30
2019-03-23T09:31:13.474Z,70.40
2019-03-23T09:36:17.891Z,72.07
2019-03-23T09:41:22.592Z,66.77
2019-03-23T09:46:27.182Z,67.17
2019-03-23T09:51:31.612Z,67.63
2019-03-23T09:56:36.334Z,68.77
2019-03-23T10:01:40.568Z,65.50
2019-03-23T10:06:45.079Z,70.63
2019-03-23T10:11:49.293Z,70.07
2019-03-23T10:16:53.844Z,67.23
2019-03-23T10:21:58.171Z,68.60
2019-03-23T10:27:02.451Z,67.90
2019-03-23T10:32:06.975Z,74.80
2019-03-23T10:37:11.215Z,69.70
2019-03-23T10:42:16.358Z,68.67
2019-03-23T10:47:21.622Z,68.67
2019-03-23T10:52:26.384Z,80.13
2019-03-23T10:57:30.831Z,77.33
2019-03-23T11:02:36.365Z,72.60
2019-03-23T11:07:40.571Z,77.53
2019-03-23T11:12:44.863Z,77.97
2019-03-23T11:17:49.120Z,80.50
2019-03-23T11:22:54.654Z,78.33
2019-03-23T11:27:58.908Z,78.70
2019-03-23T11:33:03.122Z,71.03
2019-03-23T11:38:11.688Z,70.80
2019-03-23T11:43:15.912Z,69.07
2019-03-23T11:48:20.169Z,72.57
2019-03-23T11:53:24.471Z,66.27
2019-03-23T11:58:29.251Z,67.20
2019-03-23T12:03:33.597Z,60.63
2019-03-23T12:08:40.884Z,60.23
2019-03-23T12:13:45.171Z,56.90
2019-03-23T12:18:49.412Z,48.20
2019-03-23T12:23:53.795Z,42.20
2019-03-23T12:28:58.099Z,44.40
2019-03-23T12:34:02.952Z,44.80
2019-03-23T12:39:07.562Z,44.70
2019-03-23T12:44:11.839Z,38.40
2019-03-23T12:49:16.724Z,35.43
2019-03-23T12:54:21.373Z,39.27
2019-03-23T12:59:25.606Z,40.83
2019-03-23T13:04:29.821Z,39.73
2019-03-23T13:09:36.404Z,42.80
2019-03-23T13:14:41.164Z,43.13
2019-03-23T13:19:46.070Z,42.27
2019-03-23T13:24:50.357Z,45.13
2019-03-23T13:29:54.812Z,43.37
2019-03-23T13:34:59.316Z,45.83
2019-03-23T13:40:03.853Z,44.33
2019-03-23T13:45:09.206Z,43.07
2019-03-23T13:50:15.194Z,41.87
2019-03-23T13:55:27.130Z,41.93
2019-03-23T14:00:31.433Z,38.13
2019-03-23T14:05:36.259Z,38.03
2019-03-23T14:10:40.475Z,38.10
2019-03-23T14:15:44.771Z,38.20
2019-03-23T14:20:49.226Z,34.43
2019-03-23T14:25:53.495Z,34.17
2019-03-23T14:30:57.760Z,29.40
2019-03-23T14:36:02.216Z,29.90
2019-03-23T14:41:06.442Z,24.67
2019-03-23T14:46:10.675Z,26.53
2019-03-23T14:51:14.891Z,21.40
2019-03-23T14:56:19.104Z,26.10
2019-03-23T15:01:23.556Z,24.13
2019-03-23T15:06:27.762Z,23.57
2019-03-23T15:11:31.988Z,22.33
2019-03-23T15:16:36.186Z,22.03
2019-03-23T15:21:40.407Z,19.67
2019-03-23T15:26:45.476Z,17.60
2019-03-23T15:31:49.689Z,19.70
2019-03-23T15:36:53.903Z,19.43
2019-03-23T15:41:58.153Z,18.13
2019-03-23T15:47:02.359Z,22.23
2019-03-23T15:52:06.860Z,16.53
2019-03-23T15:57:11.076Z,14.57
2019-03-23T16:02:15.291Z,10.27
2019-03-23T16:07:29.044Z,9.07
2019-03-23T16:12:34.506Z,9.23
2019-03-23T16:17:31.700Z,12.57
2019-03-23T16:22:35.915Z,14.13
2019-03-23T16:27:40.140Z,15.17
2019-03-23T16:32:44.352Z,17.07
2019-03-23T16:37:49.310Z,14.83
2019-03-23T16:42:53.544Z,13.93
2019-03-23T16:47:57.765Z,14.77
2019-03-23T16:53:01.988Z,15.47
2019-03-23T16:58:16.032Z,23.07
2019-03-23T17:03:15.011Z,70.10
2019-03-23T17:08:19.230Z,28.67
2019-03-23T17:13:23.690Z,22.60
2019-03-23T17:18:27.894Z,17.60
2019-03-23T17:23:32.101Z,20.37
2019-03-23T17:28:36.315Z,33.20
2019-03-23T17:33:40.546Z,22.23
2019-03-23T17:38:45.096Z,19.60
2019-03-23T17:43:49.375Z,19.80
2019-03-23T17:48:53.578Z,17.50
2019-03-23T17:53:59.302Z,18.03
2019-03-23T17:59:03.756Z,19.20
2019-03-23T18:04:07.963Z,18.07
2019-03-23T18:09:12.548Z,16.53
2019-03-23T18:14:17.142Z,19.23
2019-03-23T18:19:21.434Z,19.87
2019-03-23T18:24:25.944Z,20.03
2019-03-23T18:29:30.437Z,18.90
2019-03-23T18:34:35.094Z,19.93
2019-03-23T18:39:43.418Z,20.03
2019-03-23T18:44:50.767Z,21.80
2019-03-23T18:49:57.024Z,20.83
2019-03-23T18:55:01.232Z,27.63
2019-03-23T19:00:05.838Z,31.90
2019-03-23T19:05:10.230Z,32.20
2019-03-23T19:10:14.632Z,28.90
2019-03-23T19:15:18.859Z,29.07
2019-03-23T19:20:23.081Z,30.87
2019-03-23T19:25:27.379Z,30.10
2019-03-23T19:30:31.602Z,28.83
2019-03-23T19:35:35.823Z,34.63
2019-03-23T19:40:40.055Z,32.73
2019-03-23T19:45:44.288Z,34.57
2019-03-23T19:50:48.502Z,35.23
2019-03-23T19:55:52.748Z,33.53
2019-03-23T20:00:56.979Z,33.43
2019-03-23T20:06:01.463Z,32.80
2019-03-23T20:11:05.686Z,34.40
2019-03-23T20:16:10.156Z,33.47
2019-03-23T20:21:14.374Z,32.80
2019-03-23T20:26:20.427Z,38.87
2019-03-23T20:31:25.618Z,42.00
2019-03-23T20:36:30.999Z,37.87
2019-03-23T20:41:35.284Z,38.83
2019-03-23T20:46:39.702Z,39.50
2019-03-23T20:51:44.719Z,39.17
2019-03-23T20:56:49.272Z,38.50
2019-03-23T21:01:54.131Z,37.70
2019-03-23T21:06:58.790Z,38.20
2019-03-23T21:12:03.313Z,41.07
2019-03-23T21:17:07.929Z,43.17
2019-03-23T21:22:13.230Z,35.53
2019-03-23T21:27:24.152Z,41.57
2019-03-23T21:32:29.540Z,41.10
2019-03-23T21:37:34.171Z,36.53
2019-03-23T21:42:38.710Z,36.47
2019-03-23T21:47:43.450Z,38.83
2019-03-23T21:52:47.970Z,37.60
2019-03-23T21:57:52.651Z,35.80
2019-03-23T22:02:58.996Z,38.40
2019-03-23T22:08:04.737Z,33.03
2019-03-23T22:13:09.011Z,24.33
2019-03-23T22:18:13.231Z,23.00
2019-03-23T22:23:17.727Z,21.87
2019-03-23T22:28:21.955Z,23.13
2019-03-23T22:33:26.403Z,17.50
2019-03-23T22:38:30.830Z,16.57
2019-03-23T22:43:35.042Z,20.43
2019-03-23T22:48:39.246Z,22.43
2019-03-23T22:53:43.698Z,17.00
2019-03-23T22:58:47.903Z,17.87
2019-03-23T23:03:52.095Z,16.80
2019-03-23T23:08:56.304Z,15.90
2019-03-23T23:14:00.525Z,17.37
2019-03-23T23:19:04.787Z,16.30
2019-03-23T23:24:08.994Z,17.30
2019-03-23T23:29:13.194Z,22.27
2019-03-23T23:34:17.420Z,25.50
2019-03-23T23:39:21.618Z,22.00
2019-03-23T23:44:25.869Z,20.23
2019-03-23T23:49:30.344Z,15.03
2019-03-23T23:54:34.560Z,20.00
2019-03-23T23:59:38.763Z,16.83
